Time;durP1;ratioP1;P1;durP2;ratioP2;P2;SDS_P1;SDS_P2;PMS_P1;PMS_P2;Temp;Humidity;BMP_temperature;BMP_pressure;BME280_temperature;BME280_humidity;BME280_pressure;Samples;Min_cycle;Max_cycle;Signal;HPM_P1;HPM_P2
2023/06/09 00:00:17;;;;;;;6.75;4.25;;;;;;;17.44;90.64;99618.81;5100713;28;20036;-61
2023/06/09 00:02:44;;;;;;;7.88;4.60;;;;;;;17.45;90.62;99612.41;5101656;28;20210;-61
2023/06/09 00:05:11;;;;;;;6.50;5.10;;;;;;;17.41;91.39;99614.69;5100709;28;20294;-62
2023/06/09 00:07:37;;;;;;;7.72;6.10;;;;;;;17.35;91.87;99614.69;5099885;28;20068;-62
2023/06/09 00:10:04;;;;;;;7.60;5.63;;;;;;;17.46;91.24;99609.53;5099065;28;20059;-62
2023/06/09 00:12:30;;;;;;;7.45;6.22;;;;;;;17.49;90.35;99613.63;5100085;28;20042;-62
2023/06/09 00:14:55;;;;;;;7.70;6.13;;;;;;;17.44;91.08;99614.28;5101271;28;20036;-61
2023/06/09 00:17:24;;;;;;;7.38;6.03;;;;;;;17.35;91.67;99618.19;5100890;28;20024;-62
2023/06/09 00:19:52;;;;;;;10.05;6.05;;;;;;;17.19;92.46;99622.13;5101080;28;20233;-61
2023/06/09 00:22:19;;;;;;;8.00;5.88;;;;;;;17.18;93.06;99619.66;5100839;28;20035;-62
2023/06/09 00:24:45;;;;;;;8.98;5.70;;;;;;;17.34;92.16;99618.41;5102096;28;20058;-61
2023/06/09 00:27:11;;;;;;;7.40;5.65;;;;;;;17.48;91.13;99620.84;5100298;28;20326;-62
2023/06/09 00:29:36;;;;;;;6.78;5.20;;;;;;;17.77;89.77;99611.56;5100443;28;20031;-61
2023/06/09 00:32:02;;;;;;;6.60;5.13;;;;;;;18.04;88.29;99614.94;5099535;28;20059;-62
2023/06/09 00:34:28;;;;;;;7.35;4.97;;;;;;;18.24;86.70;99606.78;5100253;28;20324;-61
2023/06/09 00:36:53;;;;;;;7.47;5.82;;;;;;;18.26;86.57;99618.13;5099339;28;20050;-61
2023/06/09 00:39:19;;;;;;;8.70;5.40;;;;;;;18.55;85.16;99605.97;5099381;28;20027;-61
2023/06/09 00:41:44;;;;;;;7.13;4.97;;;;;;;18.72;82.80;99606.31;5098785;28;20035;-62
2023/06/09 00:44:12;;;;;;;6.28;4.40;;;;;;;18.85;82.58;99602.72;5100268;28;20032;-61
2023/06/09 00:46:39;;;;;;;5.55;4.97;;;;;;;18.90;81.63;99608.25;5099356;28;20071;-61
2023/06/09 00:49:04;;;;;;;6.13;5.53;;;;;;;18.89;81.84;99615.47;5100011;28;20039;-61
2023/06/09 00:51:32;;;;;;;8.23;5.57;;;;;;;18.80;82.30;99622.16;5098450;28;20154;-61
2023/06/09 00:53:58;;;;;;;6.97;4.60;;;;;;;18.82;82.04;99620.06;5098313;28;20043;-61
2023/06/09 00:56:24;;;;;;;7.30;4.60;;;;;;;18.86;81.09;99610.56;5099114;28;20040;-61
2023/06/09 00:58:50;;;;;;;5.53;4.13;;;;;;;18.88;80.56;99613.00;5098978;28;20105;-61
2023/06/09 01:01:16;;;;;;;7.68;4.15;;;;;;;18.95;80.30;99611.91;5098965;28;20039;-61
2023/06/09 01:03:41;;;;;;;6.22;4.32;;;;;;;18.96;79.46;99612.75;5099439;28;20257;-61
2023/06/09 01:06:26;;;;;;;7.70;3.90;;;;;;;19.02;79.26;99614.53;5098302;28;20357;-62
2023/06/09 01:09:35;;;;;;;5.00;4.03;;;;;;;19.04;78.73;99617.81;5100153;28;20047;-62
2023/06/09 01:12:15;;;;;;;6.40;3.92;;;;;;;19.05;78.61;99616.78;5086658;28;20059;-62
2023/06/09 01:15:11;;;;;;;6.80;4.60;;;;;;;19.08;78.42;99621.72;5118320;28;20047;-61
2023/06/09 01:17:39;;;;;;;6.82;4.13;;;;;;;19.06;77.80;99616.56;5096418;28;20070;-61
2023/06/09 01:20:07;;;;;;;7.00;4.30;;;;;;;18.99;78.35;99623.03;5099852;28;20036;-61
2023/06/09 01:22:54;;;;;;;6.78;4.65;;;;;;;19.01;78.54;99627.13;5099192;28;20146;-61
2023/06/09 01:25:25;;;;;;;7.25;5.10;;;;;;;18.84;79.01;99626.03;5100669;28;20061;-61
2023/06/09 01:27:57;;;;;;;7.10;5.43;;;;;;;18.80;79.41;99625.66;5097695;28;20063;-62
2023/06/09 01:30:28;;;;;;;8.18;5.57;;;;;;;18.73;79.83;99626.75;5099659;28;20032;-61
2023/06/09 01:32:54;;;;;;;7.80;5.30;;;;;;;18.85;79.18;99625.00;5098489;28;20039;-62
2023/06/09 01:35:20;;;;;;;7.72;4.85;;;;;;;18.95;78.68;99628.00;5098657;28;20027;-61
2023/06/09 01:37:45;;;;;;;7.13;4.88;;;;;;;18.91;78.97;99631.34;5098870;28;20229;-61
2023/06/09 01:40:11;;;;;;;6.10;5.00;;;;;;;18.84;79.25;99631.41;5099021;28;20036;-62
2023/06/09 01:42:37;;;;;;;5.38;4.38;;;;;;;18.86;79.30;99637.38;5098435;28;20317;-61
2023/06/09 01:45:03;;;;;;;4.80;4.20;;;;;;;18.81;79.41;99632.66;5098904;28;20047;-61
2023/06/09 01:47:28;;;;;;;6.68;4.78;;;;;;;18.74;79.99;99628.38;5098958;28;20121;-62
2023/06/09 01:49:54;;;;;;;7.57;4.63;;;;;;;18.55;80.98;99632.78;5099644;28;20038;-61
2023/06/09 01:52:28;;;;;;;5.93;4.60;;;;;;;18.44;81.79;99631.63;5099264;28;20341;-61
2023/06/09 01:55:06;;;;;;;9.77;5.15;;;;;;;18.55;81.42;99622.06;5098625;28;20063;-61
2023/06/09 01:57:46;;;;;;;5.93;4.47;;;;;;;18.60;80.62;99614.19;5099740;28;20039;-61
2023/06/09 02:00:12;;;;;;;5.95;5.07;;;;;;;18.47;80.51;99619.66;5099681;28;20088;-61
2023/06/09 02:02:40;;;;;;;8.02;5.05;;;;;;;18.22;81.71;99613.41;5098341;28;20032;-61
2023/06/09 02:05:07;;;;;;;8.18;4.72;;;;;;;18.19;82.14;99615.47;5098155;28;20039;-61
2023/06/09 02:07:34;;;;;;;9.32;5.72;;;;;;;18.25;81.82;99618.34;5098945;28;20052;-62
2023/06/09 02:09:59;;;;;;;8.30;5.25;;;;;;;18.31;81.58;99618.31;5098106;28;20115;-61
2023/06/09 02:12:32;;;;;;;7.63;5.63;;;;;;;18.28;82.03;99612.53;5098597;28;20039;-61
2023/06/09 02:14:58;;;;;;;6.28;4.78;;;;;;;18.40;81.71;99613.50;5103114;28;20069;-61
2023/06/09 02:17:24;;;;;;;7.43;5.38;;;;;;;18.41;81.66;99613.28;5099253;28;20059;-62
2023/06/09 02:19:50;;;;;;;6.05;5.05;;;;;;;18.41;80.93;99617.81;5099598;28;20040;-61
2023/06/09 02:22:15;;;;;;;5.60;5.00;;;;;;;18.45;80.68;99611.81;5098564;28;20043;-61
2023/06/09 02:24:41;;;;;;;6.07;4.95;;;;;;;18.24;81.90;99614.00;5103146;28;20036;-62
2023/06/09 02:27:06;;;;;;;7.28;5.40;;;;;;;18.25;82.06;99616.47;5103101;28;20024;-62
2023/06/09 02:29:32;;;;;;;6.85;5.28;;;;;;;18.13;82.91;99616.34;5108316;28;20341;-62
2023/06/09 02:32:00;;;;;;;5.70;4.63;;;;;;;18.14;83.27;99611.81;5102611;28;20034;-61
2023/06/09 02:34:26;;;;;;;6.72;4.97;;;;;;;18.07;82.65;99617.19;5101956;28;20081;-62
2023/06/09 02:36:54;;;;;;;7.28;5.47;;;;;;;18.19;82.06;99617.34;5100955;28;20194;-62
2023/06/09 02:39:22;;;;;;;7.35;4.93;;;;;;;18.33;81.33;99610.88;5100329;28;20024;-61
2023/06/09 02:41:47;;;;;;;6.25;5.53;;;;;;;18.43;80.66;99619.25;5102443;28;20224;-62
2023/06/09 02:44:13;;;;;;;7.22;5.90;;;;;;;18.51;79.74;99615.50;5101963;28;20035;-62
2023/06/09 02:46:40;;;;;;;5.32;4.43;;;;;;;18.56;79.56;99610.31;5101870;28;20054;-62
2023/06/09 02:49:09;;;;;;;8.95;5.75;;;;;;;18.51;79.02;99618.19;5102235;28;20027;-61
2023/06/09 02:51:35;;;;;;;7.93;5.30;;;;;;;18.49;79.20;99615.72;5102404;28;20107;-61
2023/06/09 02:54:00;;;;;;;8.27;5.30;;;;;;;18.40;79.65;99618.88;5102216;28;20401;-62
2023/06/09 02:56:26;;;;;;;7.90;5.18;;;;;;;18.25;81.10;99624.53;5102186;28;20036;-61
2023/06/09 02:58:57;;;;;;;7.47;5.38;;;;;;;18.20;81.16;99613.63;5101732;28;20032;-62
2023/06/09 03:01:23;;;;;;;7.60;5.22;;;;;;;18.16;81.58;99615.91;5101577;28;20082;-61
2023/06/09 03:03:48;;;;;;;10.82;6.15;;;;;;;18.14;81.81;99623.34;5100393;28;20095;-61
2023/06/09 03:06:15;;;;;;;9.23;5.20;;;;;;;18.21;81.37;99625.16;5100682;28;20244;-61
2023/06/09 03:08:41;;;;;;;6.18;5.10;;;;;;;18.24;81.43;99619.38;5101857;28;20065;-61
2023/06/09 03:11:06;;;;;;;10.30;4.85;;;;;;;18.24;81.43;99624.72;5102143;28;20063;-61
2023/06/09 03:13:32;;;;;;;7.57;5.15;;;;;;;18.39;81.05;99619.91;5102544;28;20035;-61
2023/06/09 03:15:58;;;;;;;7.43;5.15;;;;;;;18.38;81.10;99624.44;5100027;28;20044;-61
2023/06/09 03:18:24;;;;;;;7.35;4.72;;;;;;;18.51;80.95;99627.03;5100497;28;20119;-62
2023/06/09 03:20:50;;;;;;;8.68;6.50;;;;;;;18.54;80.98;99628.47;5101661;28;20043;-61
2023/06/09 03:23:17;;;;;;;8.52;5.50;;;;;;;18.46;81.43;99623.38;5102441;28;20080;-62
2023/06/09 03:25:42;;;;;;;8.40;5.72;;;;;;;18.52;81.72;99628.69;5100644;28;21029;-62
2023/06/09 03:28:08;;;;;;;8.07;5.20;;;;;;;18.67;81.04;99638.31;5100786;28;20134;-61
2023/06/09 03:30:34;;;;;;;9.00;5.28;;;;;;;18.62;81.25;99628.25;5099774;28;20067;-61
2023/06/09 03:33:00;;;;;;;9.57;5.75;;;;;;;18.73;81.12;99626.75;5098613;28;20054;-61
2023/06/09 03:35:25;;;;;;;7.15;5.47;;;;;;;18.79;80.72;99629.38;5097472;28;20044;-61
2023/06/09 03:37:51;;;;;;;9.32;5.63;;;;;;;18.84;80.32;99633.28;5100716;28;20039;-61
2023/06/09 03:40:16;;;;;;;8.10;5.85;;;;;;;18.92;80.18;99641.88;5100859;28;20039;-62
2023/06/09 03:42:41;;;;;;;8.57;5.55;;;;;;;18.95;79.80;99636.06;5101106;28;20032;-61
2023/06/09 03:45:07;;;;;;;10.05;5.63;;;;;;;19.00;79.75;99640.78;5099834;28;20062;-61
2023/06/09 03:47:33;;;;;;;8.30;6.32;;;;;;;19.03;79.18;99641.16;5100242;28;20055;-61
2023/06/09 03:49:58;;;;;;;11.75;5.95;;;;;;;19.05;79.51;99647.13;5100703;28;20081;-61
2023/06/09 03:54:59;;;;;;;6.45;5.43;;;;;;;19.17;79.49;99641.88;5098084;22;20376;-62
2023/06/09 03:57:24;;;;;;;8.60;6.30;;;;;;;18.95;78.95;99644.13;5058719;28;20202;-62
2023/06/09 03:59:50;;;;;;;8.30;5.82;;;;;;;18.98;78.88;99638.31;5055756;28;20082;-61
2023/06/09 04:02:16;;;;;;;8.75;5.93;;;;;;;19.04;78.72;99637.44;5055173;28;20242;-61
2023/06/09 04:04:41;;;;;;;8.57;5.80;;;;;;;19.03;78.55;99637.66;5055762;28;20037;-61
2023/06/09 04:07:07;;;;;;;9.57;6.32;;;;;;;19.01;79.02;99637.88;5055713;28;20029;-62
2023/06/09 04:09:34;;;;;;;12.38;7.38;;;;;;;19.04;78.97;99639.28;5055823;28;20226;-61
2023/06/09 04:12:00;;;;;;;15.80;9.35;;;;;;;19.05;79.29;99640.94;5055059;28;20345;-61
2023/06/09 04:14:26;;;;;;;10.82;6.75;;;;;;;19.05;79.24;99639.06;5055456;28;20037;-61
2023/06/09 04:16:51;;;;;;;10.00;6.40;;;;;;;19.20;79.04;99651.34;5055589;28;20069;-61
2023/06/09 04:19:16;;;;;;;8.20;6.75;;;;;;;19.37;78.89;99636.31;5055455;28;20090;-62
2023/06/09 04:21:43;;;;;;;8.40;5.65;;;;;;;19.56;77.64;99635.31;5055556;28;20114;-61
2023/06/09 04:24:09;;;;;;;5.97;5.13;;;;;;;19.74;75.47;99635.31;5054322;28;20033;-62
2023/06/09 04:26:37;;;;;;;6.43;5.03;;;;;;;19.81;75.11;99635.28;5054909;28;20124;-62
2023/06/09 04:29:03;;;;;;;9.60;6.07;;;;;;;19.94;74.45;99642.34;5055652;28;20763;-62
2023/06/09 04:31:33;;;;;;;13.95;6.18;;;;;;;20.01;73.57;99638.53;5055128;28;20040;-62
2023/06/09 04:34:05;;;;;;;11.05;5.55;;;;;;;20.09;73.35;99632.84;5055376;28;20029;-62
2023/06/09 04:36:32;;;;;;;9.85;6.03;;;;;;;20.21;73.78;99649.03;5054927;28;20029;-62
2023/06/09 04:38:59;;;;;;;8.70;5.93;;;;;;;20.25;73.28;99647.53;5055031;28;20235;-62
2023/06/09 04:41:25;;;;;;;10.40;7.18;;;;;;;20.33;72.70;99639.16;5054274;28;20048;-62
2023/06/09 04:43:53;;;;;;;9.70;7.63;;;;;;;20.42;72.32;99633.47;5054411;28;20029;-62
2023/06/09 04:46:24;;;;;;;13.93;7.53;;;;;;;20.48;71.97;99644.16;5054384;28;20025;-61
2023/06/09 04:48:51;;;;;;;8.52;6.80;;;;;;;20.57;71.89;99641.94;5054654;28;20043;-62
2023/06/09 04:51:17;;;;;;;13.00;7.63;;;;;;;20.79;70.93;99650.31;5056618;28;20191;-61
2023/06/09 04:53:42;;;;;;;13.30;8.02;;;;;;;20.96;69.69;99640.56;5054695;28;20132;-62
2023/06/09 04:56:08;;;;;;;9.05;7.32;;;;;;;21.25;69.27;99650.44;5055277;28;20036;-61
2023/06/09 04:58:34;;;;;;;10.90;7.28;;;;;;;21.33;68.21;99643.88;5054899;28;20565;-62
2023/06/09 05:01:01;;;;;;;11.32;7.60;;;;;;;21.62;67.09;99653.69;5054037;28;20037;-61
2023/06/09 05:03:28;;;;;;;9.25;7.07;;;;;;;21.89;66.26;99648.66;5054842;28;20040;-61
2023/06/09 05:05:53;;;;;;;9.98;6.97;;;;;;;22.18;64.59;99644.13;5054861;28;20040;-62
2023/06/09 05:08:19;;;;;;;9.90;6.95;;;;;;;22.33;63.35;99643.59;5054683;28;20706;-62
2023/06/09 05:10:45;;;;;;;11.73;6.57;;;;;;;22.45;62.80;99640.84;5055159;28;20032;-62
2023/06/09 05:13:10;;;;;;;9.35;7.15;;;;;;;22.54;62.25;99645.63;5054419;28;20029;-62
2023/06/09 05:15:36;;;;;;;10.68;7.30;;;;;;;22.65;61.61;99635.00;5054612;28;20334;-62
2023/06/09 05:18:02;;;;;;;9.30;6.80;;;;;;;22.67;61.66;99633.69;5053761;28;20297;-62
2023/06/09 05:20:27;;;;;;;11.90;7.53;;;;;;;22.79;61.33;99633.63;5055311;28;20269;-62
2023/06/09 05:22:53;;;;;;;10.93;6.85;;;;;;;22.92;61.34;99638.78;5055500;28;20245;-61
2023/06/09 05:25:19;;;;;;;9.15;6.50;;;;;;;23.11;60.95;99631.25;5055409;28;20207;-61
2023/06/09 05:27:44;;;;;;;11.32;6.70;;;;;;;23.40;60.35;99631.94;5053959;28;20103;-62
2023/06/09 05:30:10;;;;;;;11.85;6.55;;;;;;;23.56;60.17;99633.81;5054356;28;20052;-62
2023/06/09 05:32:36;;;;;;;11.27;7.13;;;;;;;23.70;59.11;99631.56;5054123;28;20024;-62
2023/06/09 05:35:01;;;;;;;11.93;6.72;;;;;;;23.87;57.63;99632.31;5054134;28;20037;-62
2023/06/09 05:37:27;;;;;;;12.43;6.70;;;;;;;23.93;57.63;99635.91;5054008;28;20070;-61
2023/06/09 05:39:53;;;;;;;11.27;6.63;;;;;;;23.75;57.45;99635.16;5053938;28;20326;-62
2023/06/09 05:42:18;;;;;;;10.02;6.85;;;;;;;23.87;57.18;99643.16;5054147;28;20151;-61
2023/06/09 05:44:44;;;;;;;12.68;7.05;;;;;;;24.00;57.75;99636.56;5053239;28;20036;-62
2023/06/09 05:47:10;;;;;;;9.52;6.60;;;;;;;23.98;58.16;99636.00;5054886;28;20187;-62
2023/06/09 05:49:35;;;;;;;10.45;6.22;;;;;;;24.14;57.31;99641.34;5057397;28;20032;-62
2023/06/09 05:52:02;;;;;;;10.48;6.13;;;;;;;24.44;58.08;99640.06;5057109;28;20025;-61
2023/06/09 05:54:28;;;;;;;8.52;7.10;;;;;;;24.16;56.39;99636.50;5056761;28;20048;-61
2023/06/09 05:56:54;;;;;;;11.57;6.65;;;;;;;24.33;56.35;99636.44;5057477;28;20033;-61
2023/06/09 05:59:20;;;;;;;8.77;5.70;;;;;;;24.41;55.99;99627.03;5058247;28;20337;-61
2023/06/09 06:01:50;;;;;;;10.93;6.72;;;;;;;24.44;55.90;99629.25;5057746;28;20041;-61
2023/06/09 06:04:17;;;;;;;6.97;6.00;;;;;;;24.63;54.67;99624.28;5057978;28;20045;-62
2023/06/09 06:06:43;;;;;;;7.32;5.45;;;;;;;24.81;54.73;99635.53;5057889;28;20094;-62
2023/06/09 06:09:08;;;;;;;8.35;6.35;;;;;;;25.05;55.00;99632.53;5057698;28;20322;-62
2023/06/09 06:11:34;;;;;;;9.75;5.93;;;;;;;24.77;55.03;99636.31;5057655;28;20052;-62
2023/06/09 06:13:59;;;;;;;8.82;5.97;;;;;;;25.04;53.88;99631.72;5057790;28;20229;-62
2023/06/09 06:16:25;;;;;;;9.25;6.38;;;;;;;25.36;53.68;99633.56;5057829;28;20128;-62
2023/06/09 06:18:50;;;;;;;5.85;5.15;;;;;;;25.56;52.06;99630.97;5058291;28;20112;-62
2023/06/09 06:21:17;;;;;;;6.57;5.60;;;;;;;25.69;51.11;99632.44;5058012;28;20341;-62
2023/06/09 06:23:42;;;;;;;7.10;5.40;;;;;;;25.90;49.97;99620.59;5056913;28;20257;-62
2023/06/09 06:26:08;;;;;;;7.70;5.55;;;;;;;26.17;49.63;99625.06;5057659;28;20032;-62
2023/06/09 06:28:33;;;;;;;8.57;5.70;;;;;;;26.01;49.67;99624.19;5057504;28;20068;-62
2023/06/09 06:30:59;;;;;;;8.80;5.32;;;;;;;26.12;49.47;99616.91;5057574;28;20029;-62
2023/06/09 06:33:29;;;;;;;6.85;5.78;;;;;;;26.32;49.76;99614.25;5057227;28;20037;-62
2023/06/09 06:35:55;;;;;;;8.07;5.85;;;;;;;26.53;49.53;99615.13;5057288;28;20448;-61
2023/06/09 06:38:20;;;;;;;8.38;5.80;;;;;;;25.82;50.11;99621.09;5057201;28;20052;-61
2023/06/09 06:40:47;;;;;;;8.45;6.00;;;;;;;25.38;51.76;99615.16;5056692;28;20109;-62
2023/06/09 06:43:13;;;;;;;9.40;6.05;;;;;;;25.76;50.02;99614.03;5053776;28;20044;-62
2023/06/09 06:45:38;;;;;;;10.65;5.45;;;;;;;26.17;50.99;99608.78;5054624;28;20029;-63
2023/06/09 06:48:04;;;;;;;8.48;5.40;;;;;;;26.22;49.27;99608.78;5054329;28;20051;-62
2023/06/09 06:50:30;;;;;;;7.25;4.97;;;;;;;26.56;49.71;99604.53;5054601;28;20075;-62
2023/06/09 06:52:55;;;;;;;9.63;6.00;;;;;;;26.64;47.66;99609.44;5052637;28;20045;-62
2023/06/09 06:55:20;;;;;;;7.20;4.60;;;;;;;26.93;47.17;99600.72;5055155;28;20025;-62
2023/06/09 06:57:46;;;;;;;9.98;4.53;;;;;;;27.15;46.49;99592.34;5053845;28;20285;-62
2023/06/09 07:00:14;;;;;;;36.85;8.93;;;;;;;26.77;47.91;99596.38;5055850;28;20037;-62
2023/06/09 07:02:49;;;;;;;7.53;5.07;;;;;;;26.74;46.46;99595.03;5055689;28;20219;-62
2023/06/09 07:05:15;;;;;;;7.72;5.75;;;;;;;27.16;46.58;99594.78;5053548;28;20029;-62
2023/06/09 07:07:41;;;;;;;9.23;4.95;;;;;;;27.38;45.69;99585.50;5053544;28;20095;-62
2023/06/09 07:10:09;;;;;;;6.63;4.85;;;;;;;27.73;45.02;99596.28;5056534;28;20037;-62
2023/06/09 07:12:34;;;;;;;6.03;4.72;;;;;;;27.41;44.81;99593.09;5057224;28;20045;-63
2023/06/09 07:15:00;;;;;;;9.32;6.10;;;;;;;26.89;46.45;99592.31;5057209;28;20032;-62
2023/06/09 07:17:26;;;;;;;8.00;5.28;;;;;;;26.92;46.27;99583.63;5057140;28;20052;-62
2023/06/09 07:19:51;;;;;;;6.72;4.80;;;;;;;27.24;45.71;99586.06;5057660;28;20048;-62
2023/06/09 07:22:17;;;;;;;6.15;5.18;;;;;;;27.17;46.65;99582.00;5057935;28;20355;-63
2023/06/09 07:24:42;;;;;;;8.90;5.60;;;;;;;27.02;47.66;99574.66;5057772;28;20272;-62
2023/06/09 07:27:08;;;;;;;7.05;4.95;;;;;;;26.97;46.80;99582.78;5057569;28;20044;-62
2023/06/09 07:29:35;;;;;;;8.23;5.53;;;;;;;27.12;45.93;99580.13;5057520;28;20098;-62
2023/06/09 07:32:02;;;;;;;7.72;5.32;;;;;;;27.30;45.75;99584.16;5057222;28;20352;-62
2023/06/09 07:34:28;;;;;;;12.10;5.75;;;;;;;27.31;44.60;99581.16;5057198;28;20209;-62
2023/06/09 07:36:54;;;;;;;12.27;6.53;;;;;;;27.36;45.31;99577.63;5057077;28;20226;-62
2023/06/09 07:39:20;;;;;;;8.70;5.35;;;;;;;27.33;45.38;99570.00;5057279;28;20048;-62
2023/06/09 07:41:45;;;;;;;8.80;6.38;;;;;;;27.57;45.67;99570.19;5057065;28;20043;-62
2023/06/09 07:44:11;;;;;;;13.55;7.13;;;;;;;27.66;44.49;99577.53;5056214;28;20044;-62
2023/06/09 07:46:37;;;;;;;8.57;5.03;;;;;;;27.90;44.31;99569.53;5056481;28;20037;-62
2023/06/09 07:49:02;;;;;;;7.40;5.05;;;;;;;27.97;44.16;99564.59;5057036;28;20045;-62
2023/06/09 07:51:29;;;;;;;9.93;5.35;;;;;;;27.53;45.97;99567.22;5057032;28;20322;-61
2023/06/09 07:53:54;;;;;;;7.68;5.20;;;;;;;27.79;44.19;99564.44;5057621;28;20085;-62
2023/06/09 07:56:20;;;;;;;9.32;4.65;;;;;;;27.87;44.54;99564.66;5058980;28;20253;-62
2023/06/09 07:58:46;;;;;;;8.30;5.10;;;;;;;27.97;43.42;99564.59;5057184;28;20040;-62
2023/06/09 08:01:11;;;;;;;6.13;4.43;;;;;;;28.22;44.24;99566.38;5059126;28;20063;-61
2023/06/09 08:03:37;;;;;;;6.35;4.47;;;;;;;28.48;41.02;99566.25;5058570;28;20053;-62
2023/06/09 08:06:04;;;;;;;7.45;4.40;;;;;;;28.50;42.06;99564.84;5057376;28;20033;-62
2023/06/09 08:08:31;;;;;;;7.70;4.60;;;;;;;28.55;40.56;99573.00;5057037;28;20044;-62
2023/06/09 08:10:58;;;;;;;8.10;4.40;;;;;;;28.29;42.07;99566.09;5056921;28;20379;-62
2023/06/09 08:13:24;;;;;;;9.32;4.63;;;;;;;28.11;41.90;99573.00;5056900;28;20102;-62
2023/06/09 08:15:50;;;;;;;6.93;4.78;;;;;;;28.12;41.66;99576.53;5057665;28;20029;-62
2023/06/09 08:18:15;;;;;;;8.55;4.57;;;;;;;28.27;41.66;99573.75;5057087;28;20043;-61
2023/06/09 08:20:41;;;;;;;5.75;4.00;;;;;;;28.48;41.44;99564.31;5056706;28;20049;-62
2023/06/09 08:23:07;;;;;;;6.90;4.38;;;;;;;28.36;41.94;99569.31;5055076;28;20040;-62
2023/06/09 08:25:34;;;;;;;5.43;4.13;;;;;;;28.57;40.64;99567.25;5056330;28;20036;-62
2023/06/09 08:28:00;;;;;;;6.95;4.30;;;;;;;28.89;40.98;99564.00;5056343;28;20105;-62
2023/06/09 08:30:26;;;;;;;10.35;4.35;;;;;;;29.01;39.97;99569.06;5056490;28;20060;-64
2023/06/09 08:32:51;;;;;;;5.13;4.00;;;;;;;28.79;39.91;99564.06;5055322;28;20048;-62
2023/06/09 08:35:17;;;;;;;6.32;4.50;;;;;;;28.83;39.43;99554.22;5056338;28;20081;-63
2023/06/09 08:37:44;;;;;;;6.22;3.95;;;;;;;29.00;39.27;99553.81;5056217;28;20045;-62
2023/06/09 08:40:10;;;;;;;6.47;3.92;;;;;;;29.28;39.52;99557.66;5056482;28;20040;-63
2023/06/09 08:42:36;;;;;;;7.00;4.07;;;;;;;29.21;39.67;99553.34;5056160;28;20037;-63
2023/06/09 08:45:04;;;;;;;5.18;4.35;;;;;;;29.02;38.65;99552.44;5055999;28;20025;-63
2023/06/09 08:47:34;;;;;;;6.00;4.18;;;;;;;29.14;38.63;99549.34;5054970;28;20043;-63
2023/06/09 08:50:02;;;;;;;5.18;4.38;;;;;;;29.39;39.66;99553.69;5052191;28;20794;-62
2023/06/09 08:52:29;;;;;;;7.88;4.75;;;;;;;29.46;39.87;99538.66;5055906;28;20036;-62
2023/06/09 08:54:56;;;;;;;6.38;5.10;;;;;;;28.97;40.75;99547.03;5054759;28;20158;-62
2023/06/09 08:57:23;;;;;;;8.35;4.93;;;;;;;28.79;40.29;99537.63;5055189;28;20100;-62
2023/06/09 08:59:50;;;;;;;7.75;5.38;;;;;;;28.58;40.70;99538.91;5055317;28;20478;-62
2023/06/09 09:02:17;;;;;;;7.22;4.43;;;;;;;28.20;43.22;99530.47;5056041;28;20037;-63
2023/06/09 09:04:43;;;;;;;6.07;4.95;;;;;;;27.73;45.19;99530.19;5055317;28;20421;-62
2023/06/09 09:07:11;;;;;;;6.20;4.35;;;;;;;27.82;43.17;99526.59;5056085;28;20044;-62
2023/06/09 09:09:40;;;;;;;6.05;4.13;;;;;;;27.75;44.42;99525.28;5055850;28;20040;-62
2023/06/09 09:12:11;;;;;;;6.25;4.68;;;;;;;27.36;46.08;99534.13;5055968;28;20334;-61
2023/06/09 09:14:43;;;;;;;6.45;4.95;;;;;;;27.44;45.59;99517.22;5051611;28;20048;-62
2023/06/09 09:17:14;;;;;;;5.45;4.53;;;;;;;27.36;44.91;99525.97;5055027;28;20410;-61
2023/06/09 09:19:45;;;;;;;7.82;5.75;;;;;;;26.78;48.70;99524.69;5054267;28;20044;-61
2023/06/09 09:22:11;;;;;;;6.40;4.78;;;;;;;26.77;47.83;99517.63;5055234;28;20040;-62
2023/06/09 09:24:41;;;;;;;8.07;5.20;;;;;;;26.83;47.80;99521.97;5050782;28;20095;-62
2023/06/09 09:27:22;;;;;;;8.95;4.75;;;;;;;26.73;49.13;99522.78;5055248;28;20079;-62
2023/06/09 09:29:48;;;;;;;7.20;5.40;;;;;;;26.88;49.01;99516.50;5055242;28;20063;-62
2023/06/09 09:32:15;;;;;;;7.88;5.53;;;;;;;26.90;46.83;99509.72;5054923;28;20037;-62
2023/06/09 09:34:42;;;;;;;7.18;5.38;;;;;;;26.51;48.92;99512.22;5055891;28;20036;-62
2023/06/09 09:37:15;;;;;;;7.22;4.90;;;;;;;26.48;49.71;99515.47;5055615;28;20033;-62
2023/06/09 09:39:52;;;;;;;11.73;4.90;;;;;;;26.39;49.98;99504.34;5055169;28;20040;-61
2023/06/09 09:42:18;;;;;;;6.50;5.10;;;;;;;26.26;48.03;99510.28;5056531;28;20044;-62
2023/06/09 09:44:50;;;;;;;32.42;7.38;;;;;;;26.15;50.42;99505.09;5056123;28;20029;-62
2023/06/09 09:47:17;;;;;;;6.97;4.90;;;;;;;26.26;48.49;99506.75;5054287;28;20052;-62
2023/06/09 09:49:55;;;;;;;5.55;4.45;;;;;;;26.36;48.53;99498.63;5054796;28;20045;-62
2023/06/09 09:52:32;;;;;;;8.85;4.75;;;;;;;25.99;48.41;99501.53;5052307;28;20029;-62
2023/06/09 09:55:07;;;;;;;5.82;4.60;;;;;;;25.96;48.47;99491.22;5055050;28;20060;-62
2023/06/09 09:57:35;;;;;;;6.60;4.60;;;;;;;26.03;48.65;99495.31;5056414;28;20033;-63
2023/06/09 10:00:05;;;;;;;5.22;4.13;;;;;;;25.94;48.49;99488.78;5054578;28;20029;-62
2023/06/09 10:02:33;;;;;;;5.68;4.15;;;;;;;25.97;47.99;99484.72;5054238;28;20100;-62
2023/06/09 10:05:03;;;;;;;5.32;3.80;;;;;;;26.13;46.91;99494.53;5053811;28;20201;-62
2023/06/09 10:07:30;;;;;;;7.75;4.20;;;;;;;26.23;47.50;99496.44;5054126;28;20041;-62
2023/06/09 10:09:56;;;;;;;5.50;3.95;;;;;;;26.28;46.17;99493.72;5053996;28;20033;-62
2023/06/09 10:12:23;;;;;;;5.43;3.92;;;;;;;26.20;46.87;99489.66;5054893;28;20048;-62
2023/06/09 10:14:49;;;;;;;5.10;3.70;;;;;;;25.98;47.25;99487.16;5053599;28;20107;-62
2023/06/09 10:17:20;;;;;;;6.60;3.92;;;;;;;26.25;45.96;99491.53;5054130;28;20029;-62
2023/06/09 10:19:49;;;;;;;4.05;3.53;;;;;;;26.28;47.41;99491.81;5036287;28;20047;-62
2023/06/09 10:22:15;;;;;;;3.95;3.30;;;;;;;26.25;47.02;99489.66;5054729;28;20063;-62
2023/06/09 10:24:42;;;;;;;5.47;3.20;;;;;;;26.30;47.84;99486.94;5054538;28;20041;-62
2023/06/09 10:27:09;;;;;;;5.68;3.95;;;;;;;26.34;46.35;99477.19;5054527;28;20033;-62
2023/06/09 10:29:34;;;;;;;4.10;3.30;;;;;;;26.44;47.03;99472.84;5054268;28;20060;-62
2023/06/09 10:32:02;;;;;;;3.92;3.38;;;;;;;26.57;45.40;99472.28;5054349;28;20215;-62
2023/06/09 10:34:27;;;;;;;3.60;3.30;;;;;;;26.59;45.62;99470.94;5054061;28;20056;-62
2023/06/09 10:36:53;;;;;;;4.70;3.42;;;;;;;26.71;45.77;99466.03;5054931;28;20028;-62
2023/06/09 10:39:23;;;;;;;5.82;3.30;;;;;;;26.48;47.22;99458.44;5054043;28;20052;-62
2023/06/09 10:42:05;;;;;;;4.60;3.30;;;;;;;26.32;47.59;99459.50;5053477;28;20049;-61
2023/06/09 10:44:51;;;;;;;4.63;3.38;;;;;;;26.48;47.56;99449.50;5053787;28;20033;-62
2023/06/09 10:47:42;;;;;;;4.78;3.70;;;;;;;26.64;46.76;99454.63;5058026;28;20055;-62
2023/06/09 10:50:26;;;;;;;3.90;3.28;;;;;;;26.81;44.97;99451.59;5058071;28;20071;-63
2023/06/09 10:52:56;;;;;;;6.32;3.40;;;;;;;26.49;44.75;99459.25;5055184;28;20255;-62
2023/06/09 10:55:24;;;;;;;6.63;3.58;;;;;;;26.64;45.59;99441.03;5058157;28;20029;-62
2023/06/09 10:57:52;;;;;;;3.50;3.20;;;;;;;26.59;45.33;99434.81;5058018;28;20377;-62
2023/06/09 11:00:18;;;;;;;4.10;3.08;;;;;;;26.56;45.32;99441.59;5054680;28;20033;-62
2023/06/09 11:02:46;;;;;;;5.57;3.35;;;;;;;26.48;45.43;99422.34;5057384;28;20049;-62
2023/06/09 11:05:13;;;;;;;3.08;2.65;;;;;;;26.38;43.96;99434.84;5056629;28;20037;-62
2023/06/09 11:07:41;;;;;;;3.67;2.88;;;;;;;26.47;44.75;99432.38;5058740;28;20204;-62
2023/06/09 11:10:06;;;;;;;8.52;3.40;;;;;;;26.61;44.65;99428.03;5059514;28;20238;-62
2023/06/09 11:12:46;;;;;;;6.70;3.60;;;;;;;26.64;43.84;99426.66;5059072;28;20082;-62
2023/06/09 11:15:16;;;;;;;3.90;2.88;;;;;;;26.46;48.38;99429.94;5058806;28;20334;-62
2023/06/09 11:17:43;;;;;;;5.40;3.28;;;;;;;26.75;47.01;99428.25;5058425;28;20033;-62
2023/06/09 11:20:09;;;;;;;3.88;2.90;;;;;;;26.53;45.77;99428.56;5057222;28;20036;-61
2023/06/09 11:25:17;;;;;;;7.75;4.00;;;;;;;26.59;46.88;99416.63;5056013;28;20048;-61
2023/06/09 11:27:49;;;;;;;4.07;3.22;;;;;;;26.75;45.04;99411.97;5053892;28;20048;-62
2023/06/09 11:30:19;;;;;;;3.25;2.95;;;;;;;26.73;46.09;99414.13;5058836;28;20117;-61
2023/06/09 11:32:52;;;;;;;6.30;3.50;;;;;;;26.82;46.34;99411.66;5056309;28;20044;-62
2023/06/09 11:35:32;;;;;;;3.63;3.28;;;;;;;26.63;44.81;99409.56;5053570;28;20032;-62
2023/06/09 11:37:59;;;;;;;4.10;3.40;;;;;;;26.75;47.32;99403.81;5056851;28;20330;-62